Terminal Aerodrome Forecast
Issued by NWS

Home | Current Version | Previous Version | Graphics & Text | Print | Product List | Glossary On
Versions: 1 2 3 4 5 6 7 8 9 10 11 12 13 14 15 16 17 18 19 20 21
224
FTUS43 KGRB 151332 AAA
TAFCWA
TAF AMD
KCWA 151332Z 1514/1612 00000KT P6SM SCT003
     FM151600 VRB03KT P6SM SCT030 SCT200
     FM160900 11005KT P6SM BKN100=

USA.gov is the U.S. government's official web portal to all federal, state and local government web resources and services.